Time;durP1;ratioP1;P1;durP2;ratioP2;P2;SDS_P1;SDS_P2;PMS_P1;PMS_P2;Temp;Humidity;BMP_temperature;BMP_pressure;BME280_temperature;BME280_humidity;BME280_pressure;Samples;Min_cycle;Max_cycle;Signal;HPM_P1;HPM_P2
2023/10/14 05:49:52;;;;;;;;;;;;;;;;;;5019195;28;19975;-75
2023/10/14 05:52:21;;;;;;;;;;;;;;;;;;5017758;28;19944;-75
2023/10/14 05:54:48;;;;;;;;;;;;;;;;;;5017826;28;20298;-74
2023/10/14 05:57:17;;;;;;;;;;;;;;;;;;5017611;28;19933;-74
2023/10/14 05:59:44;;;;;;;;;;;;;;;;;;5017337;28;20453;-73
2023/10/14 06:02:12;;;;;;;;;;;;;;;;;;5018066;28;19932;-74
2023/10/14 06:04:40;;;;;;;;;;;;;;;;;;5017689;28;19925;-74
2023/10/14 06:07:08;;;;;;;;;;;;;;;;;;5018325;28;19936;-75
2023/10/14 06:09:35;;;;;;;;;;;;;;;;;;5017659;28;19932;-75
2023/10/14 06:12:05;;;;;;;;;;;;;;;;;;5018207;28;20001;-75
2023/10/14 06:14:32;;;;;;;;;;;;;;;;;;5017530;28;19959;-76
2023/10/14 06:16:59;;;;;;;;;;;;;;;;;;5017942;28;20383;-75
2023/10/14 06:19:26;;;;;;;;;;;;;;;;;;5017469;28;19932;-74
2023/10/14 06:21:56;;;;;;;;;;;;;;;;;;5016912;28;20302;-75
2023/10/14 06:24:22;;;;;;;;;;;;;;;;;;5017666;28;20009;-77
2023/10/14 06:26:53;;;;;;;;;;;;;;;;;;5017744;28;20306;-77
2023/10/14 06:29:20;;;;;;;;;;;;;;;;;;5016884;28;20366;-75
2023/10/14 06:31:48;;;;;;;;;;;;;;;;;;5016789;28;19993;-76
2023/10/14 06:34:15;;;;;;;;;;;;;;;;;;5016745;28;19947;-72
2023/10/14 06:36:47;;;;;;;;;;;;;;;;;;5016251;28;20330;-74
2023/10/14 06:39:14;;;;;;;;;;;;;;;;;;5016636;28;20028;-74
2023/10/14 06:41:43;;;;;;;;;;;;;;;;;;5016535;28;19926;-74
2023/10/14 06:44:14;;;;;;;;;;;;;;;;;;5016791;28;19925;-74
2023/10/14 06:46:44;;;;;;;;;;;;;;;;;;5016027;28;19925;-74
2023/10/14 06:49:13;;;;;;;;;;;;;;;;;;5015868;28;19932;-73
2023/10/14 06:51:42;;;;;;;;;;;;;;;;;;5016462;28;20017;-74
2023/10/14 06:54:09;;;;;;;;;;;;;;;;;;5016663;28;19934;-73
2023/10/14 06:56:36;;;;;;;;;;;;;;;;;;5016239;28;19926;-74
2023/10/14 06:59:05;;;;;;;;;;;;;;;;;;5016411;28;19933;-73
2023/10/14 07:01:33;;;;;;;;;;;;;;;;;;5018066;28;19933;-74
2023/10/14 07:04:00;;;;;;;;;;;;;;;;;;5018251;28;19953;-75
2023/10/14 07:06:27;;;;;;;;;;;;;;;;;;5018190;28;19925;-74
2023/10/14 07:08:54;;;;;;;;;;;;;;;;;;5018606;28;20359;-74
2023/10/14 07:11:22;;;;;;;;;;;;;;;;;;5018903;28;19932;-75
2023/10/14 07:13:48;;;;;;;;;;;;;;;;;;5019206;28;19926;-73
2023/10/14 07:16:16;;;;;;;;;;;;;;;;;;5016828;28;20291;-74
2023/10/14 07:18:43;;;;;;;;;;;;;;;;;;5015921;28;19925;-75
2023/10/14 07:21:12;;;;;;;;;;;;;;;;;;5016024;28;19930;-75
2023/10/14 07:23:39;;;;;;;;;;;;;;;;;;5015730;28;19972;-75
2023/10/14 07:26:06;;;;;;;;;;;;;;;;;;5015631;28;19932;-75
2023/10/14 07:28:35;;;;;;;;;;;;;;;;;;5015784;28;19933;-75
2023/10/14 07:31:02;;;;;;;;;;;;;;;;;;5015455;28;19942;-73
2023/10/14 07:33:29;;;;;;;;;;;;;;;;;;5015563;28;19981;-75
2023/10/14 07:35:56;;;;;;;;;;;;;;;;;;5015560;28;20020;-75
2023/10/14 07:38:23;;;;;;;;;;;;;;;;;;5015567;28;19925;-75
2023/10/14 07:40:50;;;;;;;;;;;;;;;;;;5015469;28;19933;-74
2023/10/14 07:43:19;;;;;;;;;;;;;;;;;;5015548;28;19926;-74
2023/10/14 07:45:47;;;;;;;;;;;;;;;;;;5015581;28;19976;-74
2023/10/14 07:48:17;;;;;;;;;;;;;;;;;;5014956;28;20294;-74
2023/10/14 07:50:44;;;;;;;;;;;;;;;;;;5046590;22;19932;-74
2023/10/14 07:53:13;;;;;;;;;;;;;;;;;;5023818;28;21479;-71
2023/10/14 07:55:40;;;;;;;;;;;;;;;;;;5020345;28;19926;-71
2023/10/14 07:58:08;;;;;;;;;;;;;;;;;;5022891;28;19937;-71
2023/10/14 08:00:37;;;;;;;;;;;;;;;;;;5022269;28;19933;-71
2023/10/14 08:03:06;;;;;;;;;;;;;;;;;;5022990;28;19926;-70
2023/10/14 08:05:33;;;;;;;;;;;;;;;;;;5018190;28;20302;-73
2023/10/14 08:08:05;;;;;;;;;;;;;;;;;;5014508;28;19937;-73
2023/10/14 08:10:32;;;;;;;;;;;;;;;;;;5014582;28;19932;-73
2023/10/14 08:13:01;;;;;;;;;;;;;;;;;;5014270;28;20387;-73
2023/10/14 08:15:29;;;;;;;;;;;;;;;;;;5014709;28;20378;-75
2023/10/14 08:17:58;;;;;;;;;;;;;;;;;;5023582;28;19980;-74
2023/10/14 08:20:27;;;;;;;;;;;;;;;;;;5014375;28;19926;-73
2023/10/14 08:22:55;;;;;;;;;;;;;;;;;;5014640;28;19933;-74
2023/10/14 08:25:25;;;;;;;;;;;;;;;;;;5014495;28;20024;-74
2023/10/14 08:27:51;;;;;;;;;;;;;;;;;;5014295;28;19925;-74
2023/10/14 08:30:19;;;;;;;;;;;;;;;;;;5014462;28;19926;-74
2023/10/14 08:32:46;;;;;;;;;;;;;;;;;;5014433;28;19929;-74
2023/10/14 08:35:16;;;;;;;;;;;;;;;;;;5014530;28;19925;-74
2023/10/14 08:37:43;;;;;;;;;;;;;;;;;;5014311;28;20012;-74
2023/10/14 08:40:15;;;;;;;;;;;;;;;;;;5014350;28;19925;-74
2023/10/14 08:42:43;;;;;;;;;;;;;;;;;;5014332;28;19971;-73
2023/10/14 08:45:10;;;;;;;;;;;;;;;;;;5013937;28;20275;-74
2023/10/14 08:47:37;;;;;;;;;;;;;;;;;;5014345;28;19930;-73
2023/10/14 08:50:03;;;;;;;;;;;;;;;;;;5013776;28;19925;-73
2023/10/14 08:52:30;;;;;;;;;;;;;;;;;;5014169;28;19933;-74
2023/10/14 08:54:58;;;;;;;;;;;;;;;;;;5014133;28;20286;-73
2023/10/14 08:57:25;;;;;;;;;;;;;;;;;;5014091;28;19995;-74
2023/10/14 08:59:52;;;;;;;;;;;;;;;;;;5013888;28;19925;-74
2023/10/14 09:02:22;;;;;;;;;;;;;;;;;;5013932;28;20335;-74
2023/10/14 09:04:49;;;;;;;;;;;;;;;;;;5014142;28;19980;-73
2023/10/14 09:07:16;;;;;;;;;;;;;;;;;;5014092;28;19926;-73
2023/10/14 09:09:43;;;;;;;;;;;;;;;;;;5013492;28;20375;-73
2023/10/14 09:12:10;;;;;;;;;;;;;;;;;;5013578;28;20374;-74
2023/10/14 09:14:37;;;;;;;;;;;;;;;;;;5014262;28;19936;-73
2023/10/14 09:17:04;;;;;;;;;;;;;;;;;;5013854;28;19948;-73
2023/10/14 09:19:31;;;;;;;;;;;;;;;;;;5013725;28;19932;-72
2023/10/14 09:21:58;;;;;;;;;;;;;;;;;;5013990;28;19948;-72
2023/10/14 09:24:25;;;;;;;;;;;;;;;;;;5014106;28;19929;-71
2023/10/14 09:26:52;;;;;;;;;;;;;;;;;;5015050;28;20409;-74
2023/10/14 09:29:22;;;;;;;;;;;;;;;;;;5015974;28;19925;-74
2023/10/14 09:31:49;;;;;;;;;;;;;;;;;;5020359;28;19933;-72
2023/10/14 09:34:15;;;;;;;;;;;;;;;;;;5016985;28;20330;-72
2023/10/14 09:36:43;;;;;;;;;;;;;;;;;;5017276;28;19925;-72
2023/10/14 09:39:13;;;;;;;;;;;;;;;;;;5017185;28;19972;-70
2023/10/14 09:41:40;;;;;;;;;;;;;;;;;;5017189;28;19926;-71
2023/10/14 09:44:07;;;;;;;;;;;;;;;;;;5017178;28;19934;-72
2023/10/14 09:46:34;;;;;;;;;;;;;;;;;;5017535;28;20337;-72
2023/10/14 09:49:01;;;;;;;;;;;;;;;;;;5017230;28;19933;-70
2023/10/14 09:51:27;;;;;;;;;;;;;;;;;;5016601;28;20349;-72
2023/10/14 09:53:54;;;;;;;;;;;;;;;;;;5017259;28;19932;-72
2023/10/14 09:56:21;;;;;;;;;;;;;;;;;;5016829;28;19930;-72
2023/10/14 09:58:48;;;;;;;;;;;;;;;;;;5017355;28;19926;-72
2023/10/14 10:01:15;;;;;;;;;;;;;;;;;;5016963;28;19925;-73
2023/10/14 10:03:44;;;;;;;;;;;;;;;;;;5016969;28;20036;-72
2023/10/14 10:06:11;;;;;;;;;;;;;;;;;;5016903;28;19972;-74
2023/10/14 10:08:38;;;;;;;;;;;;;;;;;;5016607;28;19956;-74
2023/10/14 10:11:05;;;;;;;;;;;;;;;;;;5016548;28;20031;-73
2023/10/14 10:13:32;;;;;;;;;;;;;;;;;;5016822;28;19925;-75
2023/10/14 10:15:59;;;;;;;;;;;;;;;;;;5016213;28;20390;-75
2023/10/14 10:18:26;;;;;;;;;;;;;;;;;;5016469;28;19973;-74
2023/10/14 10:20:56;;;;;;;;;;;;;;;;;;5016429;28;19926;-75
2023/10/14 10:23:23;;;;;;;;;;;;;;;;;;5016383;28;20012;-75
2023/10/14 10:25:53;;;;;;;;;;;;;;;;;;5016812;28;19932;-74
2023/10/14 10:28:23;;;;;;;;;;;;;;;;;;5016385;28;20338;-73
2023/10/14 10:30:50;;;;;;;;;;;;;;;;;;5017541;28;19979;-74
2023/10/14 10:33:17;;;;;;;;;;;;;;;;;;5016968;28;19925;-74
2023/10/14 10:35:44;;;;;;;;;;;;;;;;;;5017155;28;19933;-73
2023/10/14 10:38:11;;;;;;;;;;;;;;;;;;5016461;28;20316;-74
2023/10/14 10:40:40;;;;;;;;;;;;;;;;;;5015309;28;19995;-71
2023/10/14 10:43:09;;;;;;;;;;;;;;;;;;5016366;28;19933;-71
2023/10/14 10:45:36;;;;;;;;;;;;;;;;;;5016489;28;20379;-73
2023/10/14 10:48:03;;;;;;;;;;;;;;;;;;5016253;28;19972;-73
2023/10/14 10:50:34;;;;;;;;;;;;;;;;;;5015877;28;20367;-73
2023/10/14 10:53:00;;;;;;;;;;;;;;;;;;5016642;28;19926;-71
2023/10/14 10:55:27;;;;;;;;;;;;;;;;;;5015882;28;19932;-70
2023/10/14 10:57:54;;;;;;;;;;;;;;;;;;5015843;28;19932;-71
2023/10/14 11:00:22;;;;;;;;;;;;;;;;;;5015444;28;20497;-70
2023/10/14 11:02:50;;;;;;;;;;;;;;;;;;5016057;28;19936;-71
2023/10/14 11:05:17;;;;;;;;;;;;;;;;;;5015724;28;19925;-71
2023/10/14 11:07:45;;;;;;;;;;;;;;;;;;5015149;28;19925;-71
2023/10/14 11:10:12;;;;;;;;;;;;;;;;;;5015688;28;20341;-71
2023/10/14 11:12:39;;;;;;;;;;;;;;;;;;5015966;28;19925;-71
2023/10/14 11:15:07;;;;;;;;;;;;;;;;;;5016318;28;19925;-73
2023/10/14 11:17:34;;;;;;;;;;;;;;;;;;5015787;28;19929;-73
2023/10/14 11:20:05;;;;;;;;;;;;;;;;;;5015344;28;19926;-73
2023/10/14 11:22:32;;;;;;;;;;;;;;;;;;5015403;28;19973;-73
2023/10/14 11:24:59;;;;;;;;;;;;;;;;;;5015040;28;19936;-73
2023/10/14 11:27:30;;;;;;;;;;;;;;;;;;5015276;28;20004;-73
2023/10/14 11:29:57;;;;;;;;;;;;;;;;;;5015163;28;19925;-73
2023/10/14 11:32:25;;;;;;;;;;;;;;;;;;5015109;28;19926;-73
2023/10/14 11:34:52;;;;;;;;;;;;;;;;;;5015801;28;19933;-72
2023/10/14 11:37:19;;;;;;;;;;;;;;;;;;5015932;28;19925;-73
2023/10/14 11:39:46;;;;;;;;;;;;;;;;;;5015471;28;19936;-73
2023/10/14 11:42:14;;;;;;;;;;;;;;;;;;5015034;28;20020;-72
2023/10/14 11:44:41;;;;;;;;;;;;;;;;;;5015155;28;19970;-73
2023/10/14 11:47:08;;;;;;;;;;;;;;;;;;5015163;28;19932;-73
2023/10/14 11:49:35;;;;;;;;;;;;;;;;;;5015209;28;20399;-71
2023/10/14 11:52:04;;;;;;;;;;;;;;;;;;5015831;28;19926;-70
2023/10/14 11:54:31;;;;;;;;;;;;;;;;;;5014725;28;19925;-71
2023/10/14 11:56:58;;;;;;;;;;;;;;;;;;5014855;28;19926;-70
2023/10/14 11:59:25;;;;;;;;;;;;;;;;;;5014704;28;19980;-70
2023/10/14 12:01:52;;;;;;;;;;;;;;;;;;5014586;28;19933;-70
2023/10/14 12:04:19;;;;;;;;;;;;;;;;;;5014272;28;19930;-71
2023/10/14 12:06:46;;;;;;;;;;;;;;;;;;5014759;28;19926;-70
2023/10/14 12:09:13;;;;;;;;;;;;;;;;;;5014263;28;20374;-70
2023/10/14 12:11:42;;;;;;;;;;;;;;;;;;5014706;28;20017;-73
2023/10/14 12:14:11;;;;;;;;;;;;;;;;;;5014173;28;20448;-72
2023/10/14 12:16:37;;;;;;;;;;;;;;;;;;5014524;28;19933;-72
2023/10/14 12:19:05;;;;;;;;;;;;;;;;;;5014275;28;19925;-74
2023/10/14 12:21:32;;;;;;;;;;;;;;;;;;5014259;28;19964;-74
2023/10/14 12:24:02;;;;;;;;;;;;;;;;;;5013986;28;20259;-73
2023/10/14 12:26:30;;;;;;;;;;;;;;;;;;5014306;28;19969;-74
2023/10/14 12:28:57;;;;;;;;;;;;;;;;;;5014241;28;19926;-74
2023/10/14 12:31:27;;;;;;;;;;;;;;;;;;5013813;28;19933;-75
2023/10/14 12:33:54;;;;;;;;;;;;;;;;;;5017766;28;19925;-73
2023/10/14 12:36:22;;;;;;;;;;;;;;;;;;5014778;28;20066;-73
2023/10/14 12:38:49;;;;;;;;;;;;;;;;;;5014795;28;19926;-73
2023/10/14 12:41:21;;;;;;;;;;;;;;;;;;5014636;28;20349;-73
2023/10/14 12:43:51;;;;;;;;;;;;;;;;;;5014185;28;19932;-73
2023/10/14 12:46:20;;;;;;;;;;;;;;;;;;5014672;28;19926;-74
2023/10/14 12:48:48;;;;;;;;;;;;;;;;;;5013973;28;19930;-73
2023/10/14 12:51:17;;;;;;;;;;;;;;;;;;5013693;28;20015;-73
2023/10/14 12:53:46;;;;;;;;;;;;;;;;;;5014126;28;20040;-73
2023/10/14 12:56:14;;;;;;;;;;;;;;;;;;5014079;28;19969;-73
2023/10/14 12:58:42;;;;;;;;;;;;;;;;;;5014204;28;19967;-73
2023/10/14 13:01:13;;;;;;;;;;;;;;;;;;5014001;28;20040;-72
2023/10/14 13:03:42;;;;;;;;;;;;;;;;;;5014474;28;19934;-73
2023/10/14 13:06:09;;;;;;;;;;;;;;;;;;5018174;28;19932;-73
2023/10/14 13:08:36;;;;;;;;;;;;;;;;;;5017806;28;20387;-72
2023/10/14 13:11:03;;;;;;;;;;;;;;;;;;5018189;28;19926;-74
2023/10/14 13:13:30;;;;;;;;;;;;;;;;;;5017951;28;19952;-74
2023/10/14 13:15:57;;;;;;;;;;;;;;;;;;5017693;28;19932;-73
2023/10/14 13:18:25;;;;;;;;;;;;;;;;;;5017754;28;19926;-74
2023/10/14 13:20:52;;;;;;;;;;;;;;;;;;5017112;28;20322;-73
2023/10/14 13:23:19;;;;;;;;;;;;;;;;;;5017617;28;19925;-74
2023/10/14 13:25:46;;;;;;;;;;;;;;;;;;5017623;28;19926;-74
2023/10/14 13:28:14;;;;;;;;;;;;;;;;;;5017432;28;19926;-73
2023/10/14 13:30:45;;;;;;;;;;;;;;;;;;5017412;28;20441;-72
2023/10/14 13:33:12;;;;;;;;;;;;;;;;;;5017848;28;19988;-74
2023/10/14 13:35:39;;;;;;;;;;;;;;;;;;5017337;28;19931;-72
2023/10/14 13:38:09;;;;;;;;;;;;;;;;;;5017511;28;19948;-72
2023/10/14 13:40:37;;;;;;;;;;;;;;;;;;5017081;28;19972;-72
2023/10/14 13:43:04;;;;;;;;;;;;;;;;;;5017138;28;19933;-72
2023/10/14 13:45:31;;;;;;;;;;;;;;;;;;5017089;28;19925;-73
2023/10/14 13:48:05;;;;;;;;;;;;;;;;;;5017054;28;19933;-73
2023/10/14 13:50:37;;;;;;;;;;;;;;;;;;5016712;28;19957;-74
2023/10/14 13:53:09;;;;;;;;;;;;;;;;;;5016946;28;19976;-74
2023/10/14 13:55:35;;;;;;;;;;;;;;;;;;5016841;28;19976;-74
2023/10/14 13:58:06;;;;;;;;;;;;;;;;;;5016794;28;19925;-74
2023/10/14 14:00:36;;;;;;;;;;;;;;;;;;5016637;28;19948;-74
2023/10/14 14:03:04;;;;;;;;;;;;;;;;;;5016465;28;20383;-74
2023/10/14 14:05:31;;;;;;;;;;;;;;;;;;5017263;28;19983;-74
2023/10/14 14:07:58;;;;;;;;;;;;;;;;;;5019571;28;20331;-74
2023/10/14 14:10:25;;;;;;;;;;;;;;;;;;5025188;28;19960;-73
2023/10/14 14:12:54;;;;;;;;;;;;;;;;;;5024458;28;19960;-73
2023/10/14 14:15:21;;;;;;;;;;;;;;;;;;5024052;28;19930;-73
2023/10/14 14:17:48;;;;;;;;;;;;;;;;;;5021416;28;19933;-73
2023/10/14 14:20:16;;;;;;;;;;;;;;;;;;5021005;28;19926;-73
2023/10/14 14:22:43;;;;;;;;;;;;;;;;;;5019992;28;19925;-73
2023/10/14 14:25:12;;;;;;;;;;;;;;;;;;5017736;28;19967;-74
2023/10/14 14:27:38;;;;;;;;;;;;;;;;;;5017542;28;19956;-74
2023/10/14 14:30:08;;;;;;;;;;;;;;;;;;5018473;28;19926;-73
2023/10/14 14:32:36;;;;;;;;;;;;;;;;;;5021958;28;20343;-73
2023/10/14 14:35:03;;;;;;;;;;;;;;;;;;5020125;28;20375;-73
2023/10/14 14:37:32;;;;;;;;;;;;;;;;;;5020926;28;19932;-73
2023/10/14 14:39:59;;;;;;;;;;;;;;;;;;5022055;28;20345;-74
2023/10/14 14:42:29;;;;;;;;;;;;;;;;;;5021406;28;19932;-74
2023/10/14 14:44:56;;;;;;;;;;;;;;;;;;5021701;28;19931;-74
2023/10/14 14:47:24;;;;;;;;;;;;;;;;;;5018689;28;19925;-74
2023/10/14 14:49:51;;;;;;;;;;;;;;;;;;5019878;28;19980;-73
2023/10/14 14:52:19;;;;;;;;;;;;;;;;;;5020029;28;19979;-74
2023/10/14 14:54:46;;;;;;;;;;;;;;;;;;5019641;28;20375;-74
2023/10/14 14:57:13;;;;;;;;;;;;;;;;;;5018730;28;19926;-73
2023/10/14 14:59:40;;;;;;;;;;;;;;;;;;5019163;28;20391;-74
2023/10/14 15:02:07;;;;;;;;;;;;;;;;;;5017641;28;20359;-74
2023/10/14 15:04:35;;;;;;;;;;;;;;;;;;5017200;28;20350;-74
2023/10/14 15:07:02;;;;;;;;;;;;;;;;;;5018037;28;19972;-75
2023/10/14 15:09:29;;;;;;;;;;;;;;;;;;5017150;28;19926;-75
2023/10/14 15:11:56;;;;;;;;;;;;;;;;;;5017135;28;19925;-74
2023/10/14 15:14:23;;;;;;;;;;;;;;;;;;5016590;28;19925;-75
2023/10/14 15:16:50;;;;;;;;;;;;;;;;;;5016484;28;19925;-74
2023/10/14 15:19:17;;;;;;;;;;;;;;;;;;5016468;28;19926;-75
2023/10/14 15:21:44;;;;;;;;;;;;;;;;;;5016297;28;19955;-72
2023/10/14 15:24:11;;;;;;;;;;;;;;;;;;5015967;28;19925;-75
2023/10/14 15:26:38;;;;;;;;;;;;;;;;;;5015045;28;20009;-75
2023/10/14 15:29:05;;;;;;;;;;;;;;;;;;5015386;28;19925;-74
2023/10/14 15:31:32;;;;;;;;;;;;;;;;;;5014965;28;20032;-74
2023/10/14 15:34:00;;;;;;;;;;;;;;;;;;5015142;28;19926;-74
2023/10/14 15:36:29;;;;;;;;;;;;;;;;;;5015546;28;19925;-74
2023/10/14 15:38:56;;;;;;;;;;;;;;;;;;5015264;28;19972;-75
2023/10/14 15:41:25;;;;;;;;;;;;;;;;;;5015952;28;19933;-76
2023/10/14 15:43:52;;;;;;;;;;;;;;;;;;5019973;28;19926;-75
2023/10/14 15:46:18;;;;;;;;;;;;;;;;;;5017859;28;19933;-74
2023/10/14 15:48:47;;;;;;;;;;;;;;;;;;5016282;28;19925;-74
2023/10/14 15:51:14;;;;;;;;;;;;;;;;;;5014387;28;19926;-75
2023/10/14 15:53:41;;;;;;;;;;;;;;;;;;5014801;28;19925;-77
2023/10/14 15:56:08;;;;;;;;;;;;;;;;;;5014453;28;20314;-75
2023/10/14 15:58:35;;;;;;;;;;;;;;;;;;5014511;28;19926;-75
2023/10/14 16:01:02;;;;;;;;;;;;;;;;;;5017612;28;19947;-75
2023/10/14 16:03:30;;;;;;;;;;;;;;;;;;5016458;28;19925;-75
2023/10/14 16:05:57;;;;;;;;;;;;;;;;;;5015796;28;20041;-76
2023/10/14 16:08:24;;;;;;;;;;;;;;;;;;5014278;28;19932;-76
2023/10/14 16:10:51;;;;;;;;;;;;;;;;;;5014155;28;19925;-75
2023/10/14 16:13:18;;;;;;;;;;;;;;;;;;5014138;28;19932;-75
2023/10/14 16:15:45;;;;;;;;;;;;;;;;;;5014035;28;19932;-75
2023/10/14 16:18:12;;;;;;;;;;;;;;;;;;5014007;28;19932;-75
2023/10/14 16:20:39;;;;;;;;;;;;;;;;;;5013968;28;19925;-75
2023/10/14 16:23:06;;;;;;;;;;;;;;;;;;5014042;28;19925;-74
2023/10/14 16:25:33;;;;;;;;;;;;;;;;;;5013921;28;20044;-74
2023/10/14 16:28:01;;;;;;;;;;;;;;;;;;5013930;28;19933;-75
2023/10/14 16:30:29;;;;;;;;;;;;;;;;;;5014162;28;19952;-75
2023/10/14 16:32:56;;;;;;;;;;;;;;;;;;5013968;28;19926;-74
2023/10/14 16:35:23;;;;;;;;;;;;;;;;;;5013715;28;20387;-76
2023/10/14 16:37:50;;;;;;;;;;;;;;;;;;5013924;28;20021;-76
2023/10/14 16:40:16;;;;;;;;;;;;;;;;;;5014640;28;19933;-76
2023/10/14 16:42:46;;;;;;;;;;;;;;;;;;5014028;28;19930;-74
2023/10/14 16:45:14;;;;;;;;;;;;;;;;;;5013994;28;20298;-75
2023/10/14 16:47:41;;;;;;;;;;;;;;;;;;5014042;28;19965;-75
2023/10/14 16:50:13;;;;;;;;;;;;;;;;;;5013930;28;19949;-75
2023/10/14 16:52:41;;;;;;;;;;;;;;;;;;5014217;28;19929;-75
2023/10/14 16:55:11;;;;;;;;;;;;;;;;;;5013892;28;20342;-76
2023/10/14 16:57:38;;;;;;;;;;;;;;;;;;5014290;28;19961;-76
2023/10/14 17:00:09;;;;;;;;;;;;;;;;;;5014049;28;19925;-77
2023/10/14 17:02:36;;;;;;;;;;;;;;;;;;5014755;28;19937;-77
2023/10/14 17:05:04;;;;;;;;;;;;;;;;;;5013979;28;19925;-77
2023/10/14 17:07:31;;;;;;;;;;;;;;;;;;5013623;28;19926;-76
2023/10/14 17:09:58;;;;;;;;;;;;;;;;;;5013807;28;19925;-76
2023/10/14 17:12:25;;;;;;;;;;;;;;;;;;5013974;28;19925;-76
2023/10/14 17:14:53;;;;;;;;;;;;;;;;;;5013759;28;19925;-74
2023/10/14 17:17:20;;;;;;;;;;;;;;;;;;5013963;28;19925;-75
2023/10/14 17:19:48;;;;;;;;;;;;;;;;;;5014031;28;19930;-76
2023/10/14 17:22:15;;;;;;;;;;;;;;;;;;5013926;28;20405;-75
2023/10/14 17:24:42;;;;;;;;;;;;;;;;;;5014648;28;19960;-77
2023/10/14 17:27:09;;;;;;;;;;;;;;;;;;5014498;28;19980;-76
2023/10/14 17:29:38;;;;;;;;;;;;;;;;;;5013961;28;19926;-77
2023/10/14 17:32:05;;;;;;;;;;;;;;;;;;5014049;28;19932;-77
2023/10/14 17:34:32;;;;;;;;;;;;;;;;;;5013855;28;19925;-77
2023/10/14 17:36:59;;;;;;;;;;;;;;;;;;5013848;28;19926;-75
2023/10/14 17:39:26;;;;;;;;;;;;;;;;;;5013859;28;19925;-77
2023/10/14 17:41:53;;;;;;;;;;;;;;;;;;5013591;28;19941;-77
2023/10/14 17:44:20;;;;;;;;;;;;;;;;;;5014046;28;19932;-76
2023/10/14 17:46:47;;;;;;;;;;;;;;;;;;5013739;28;19937;-76
2023/10/14 17:49:14;;;;;;;;;;;;;;;;;;5013681;28;19937;-77
2023/10/14 17:51:41;;;;;;;;;;;;;;;;;;5016181;28;19925;-76
2023/10/14 17:54:08;;;;;;;;;;;;;;;;;;5017074;28;19933;-76
2023/10/14 17:56:38;;;;;;;;;;;;;;;;;;5019340;28;19932;-76
2023/10/14 17:59:05;;;;;;;;;;;;;;;;;;5016898;28;19992;-76
2023/10/14 18:01:32;;;;;;;;;;;;;;;;;;5016780;28;20298;-76
2023/10/14 18:03:59;;;;;;;;;;;;;;;;;;5016787;28;19926;-76
2023/10/14 18:06:31;;;;;;;;;;;;;;;;;;5016671;28;19932;-77
2023/10/14 18:08:58;;;;;;;;;;;;;;;;;;5017241;28;19926;-77
2023/10/14 18:11:25;;;;;;;;;;;;;;;;;;5016563;28;19925;-75
2023/10/14 18:13:52;;;;;;;;;;;;;;;;;;5016640;28;19926;-74
2023/10/14 18:16:21;;;;;;;;;;;;;;;;;;5016892;28;19925;-74
2023/10/14 18:18:48;;;;;;;;;;;;;;;;;;5016761;28;20450;-75
2023/10/14 18:21:16;;;;;;;;;;;;;;;;;;5016561;28;20007;-75
2023/10/14 18:23:43;;;;;;;;;;;;;;;;;;5016842;28;19926;-75
2023/10/14 18:26:12;;;;;;;;;;;;;;;;;;5016567;28;19926;-75
2023/10/14 18:28:39;;;;;;;;;;;;;;;;;;5016524;28;19926;-75
2023/10/14 18:31:06;;;;;;;;;;;;;;;;;;5016499;28;19926;-74
2023/10/14 18:33:33;;;;;;;;;;;;;;;;;;5016481;28;19925;-75
2023/10/14 18:36:00;;;;;;;;;;;;;;;;;;5016132;28;19948;-75
2023/10/14 18:38:27;;;;;;;;;;;;;;;;;;5017641;28;19925;-75
2023/10/14 18:40:53;;;;;;;;;;;;;;;;;;5016292;28;19925;-74
2023/10/14 18:43:20;;;;;;;;;;;;;;;;;;5015898;28;19926;-74
2023/10/14 18:45:47;;;;;;;;;;;;;;;;;;5016203;28;19952;-76
2023/10/14 18:48:16;;;;;;;;;;;;;;;;;;5019058;28;19925;-79
2023/10/14 18:50:43;;;;;;;;;;;;;;;;;;5019824;28;19929;-79
2023/10/14 18:53:10;;;;;;;;;;;;;;;;;;5020427;28;19926;-79
2023/10/14 18:55:38;;;;;;;;;;;;;;;;;;5020847;28;19925;-80
2023/10/14 18:58:05;;;;;;;;;;;;;;;;;;5019039;28;19929;-78
2023/10/14 19:00:32;;;;;;;;;;;;;;;;;;5018740;28;19926;-79
2023/10/14 19:02:59;;;;;;;;;;;;;;;;;;5018111;28;19925;-79
2023/10/14 19:05:28;;;;;;;;;;;;;;;;;;5018290;28;19926;-78
2023/10/14 19:07:55;;;;;;;;;;;;;;;;;;5017094;28;19929;-78
2023/10/14 19:10:23;;;;;;;;;;;;;;;;;;5027973;28;19991;-77
2023/10/14 19:12:50;;;;;;;;;;;;;;;;;;5023915;28;19972;-77
2023/10/14 19:15:19;;;;;;;;;;;;;;;;;;5023873;28;19925;-78
2023/10/14 19:17:48;;;;;;;;;;;;;;;;;;5019353;28;19993;-79
2023/10/14 19:20:15;;;;;;;;;;;;;;;;;;5019491;28;19929;-78
2023/10/14 19:22:42;;;;;;;;;;;;;;;;;;5021316;28;19925;-80
2023/10/14 19:25:10;;;;;;;;;;;;;;;;;;5020882;28;19926;-80
2023/10/14 19:27:37;;;;;;;;;;;;;;;;;;5030893;28;19993;-79
2023/10/14 19:30:07;;;;;;;;;;;;;;;;;;5030211;28;19941;-79
2023/10/14 19:32:37;;;;;;;;;;;;;;;;;;5022213;28;19926;-79
2023/10/14 19:35:05;;;;;;;;;;;;;;;;;;5019342;28;19931;-79
2023/10/14 19:37:32;;;;;;;;;;;;;;;;;;5017516;28;19930;-78
2023/10/14 19:39:59;;;;;;;;;;;;;;;;;;5017712;28;20406;-77
2023/10/14 19:42:26;;;;;;;;;;;;;;;;;;5017153;28;19926;-77
2023/10/14 19:44:54;;;;;;;;;;;;;;;;;;5017132;28;20319;-77
2023/10/14 19:47:21;;;;;;;;;;;;;;;;;;5016089;28;19977;-79
2023/10/14 19:49:49;;;;;;;;;;;;;;;;;;5015525;28;19929;-78
2023/10/14 19:52:16;;;;;;;;;;;;;;;;;;5014978;28;20379;-78
2023/10/14 19:54:43;;;;;;;;;;;;;;;;;;5015283;28;19925;-76
2023/10/14 19:57:10;;;;;;;;;;;;;;;;;;5015147;28;19925;-77
2023/10/14 19:59:37;;;;;;;;;;;;;;;;;;5015591;28;19925;-77
2023/10/14 20:02:04;;;;;;;;;;;;;;;;;;5015001;28;19925;-78
2023/10/14 20:04:31;;;;;;;;;;;;;;;;;;5015119;28;19933;-78
2023/10/14 20:06:58;;;;;;;;;;;;;;;;;;5014791;28;20291;-77
2023/10/14 20:09:27;;;;;;;;;;;;;;;;;;5014843;28;19929;-77
2023/10/14 20:11:55;;;;;;;;;;;;;;;;;;5014404;28;20390;-77
2023/10/14 20:14:21;;;;;;;;;;;;;;;;;;5014434;28;19972;-77
2023/10/14 20:16:49;;;;;;;;;;;;;;;;;;5014690;28;19932;-77
2023/10/14 20:19:19;;;;;;;;;;;;;;;;;;5014812;28;19988;-77
2023/10/14 20:21:51;;;;;;;;;;;;;;;;;;5014828;28;20020;-77
2023/10/14 20:24:18;;;;;;;;;;;;;;;;;;5015207;28;19968;-76
2023/10/14 20:26:46;;;;;;;;;;;;;;;;;;5014722;28;19930;-76
2023/10/14 20:29:13;;;;;;;;;;;;;;;;;;5015004;28;19975;-76
2023/10/14 20:31:41;;;;;;;;;;;;;;;;;;5014482;28;19925;-72
2023/10/14 20:34:12;;;;;;;;;;;;;;;;;;5014261;28;19925;-73
2023/10/14 20:36:39;;;;;;;;;;;;;;;;;;5014620;28;19926;-72
2023/10/14 20:39:06;;;;;;;;;;;;;;;;;;5014474;28;19937;-72
2023/10/14 20:41:33;;;;;;;;;;;;;;;;;;5014326;28;19948;-74
2023/10/14 20:44:03;;;;;;;;;;;;;;;;;;5014239;28;19926;-75
2023/10/14 20:46:31;;;;;;;;;;;;;;;;;;5015388;28;19925;-77
2023/10/14 20:48:58;;;;;;;;;;;;;;;;;;5014824;28;19960;-77
2023/10/14 20:51:25;;;;;;;;;;;;;;;;;;5015506;28;19926;-78
2023/10/14 20:53:52;;;;;;;;;;;;;;;;;;5015978;28;19925;-75
2023/10/14 20:56:20;;;;;;;;;;;;;;;;;;5014807;28;19933;-75
2023/10/14 20:58:48;;;;;;;;;;;;;;;;;;5019133;28;19952;-75
2023/10/14 21:01:15;;;;;;;;;;;;;;;;;;5019552;28;20284;-74
2023/10/14 21:03:42;;;;;;;;;;;;;;;;;;5016346;28;19925;-75
2023/10/14 21:06:09;;;;;;;;;;;;;;;;;;5014202;28;19932;-75
2023/10/14 21:08:36;;;;;;;;;;;;;;;;;;5016714;28;19929;-74
2023/10/14 21:11:07;;;;;;;;;;;;;;;;;;5015574;28;19933;-76
2023/10/14 21:13:35;;;;;;;;;;;;;;;;;;5014053;28;20012;-75
2023/10/14 21:16:02;;;;;;;;;;;;;;;;;;5014257;28;19925;-76
2023/10/14 21:18:29;;;;;;;;;;;;;;;;;;5013969;28;19926;-75
2023/10/14 21:20:56;;;;;;;;;;;;;;;;;;5013923;28;19937;-76
2023/10/14 21:23:23;;;;;;;;;;;;;;;;;;5013903;28;19925;-76
2023/10/14 21:25:50;;;;;;;;;;;;;;;;;;5016244;28;19932;-76
2023/10/14 21:28:17;;;;;;;;;;;;;;;;;;5017445;28;20367;-75
2023/10/14 21:30:44;;;;;;;;;;;;;;;;;;5017472;28;19926;-75
2023/10/14 21:33:11;;;;;;;;;;;;;;;;;;5017346;28;19925;-74
2023/10/14 21:35:38;;;;;;;;;;;;;;;;;;5017534;28;19925;-74
2023/10/14 21:38:04;;;;;;;;;;;;;;;;;;5025911;28;19925;-75
2023/10/14 21:40:31;;;;;;;;;;;;;;;;;;5026138;28;19925;-76
2023/10/14 21:42:58;;;;;;;;;;;;;;;;;;5029957;28;19925;-75
2023/10/14 21:45:27;;;;;;;;;;;;;;;;;;5029124;28;19951;-75
2023/10/14 21:47:54;;;;;;;;;;;;;;;;;;5020976;28;19926;-75
2023/10/14 21:50:21;;;;;;;;;;;;;;;;;;5019943;28;19926;-75
2023/10/14 21:52:49;;;;;;;;;;;;;;;;;;5018903;28;19930;-75
2023/10/14 21:55:18;;;;;;;;;;;;;;;;;;5018330;28;19937;-76
2023/10/14 21:57:45;;;;;;;;;;;;;;;;;;5018056;28;19965;-75
2023/10/14 22:00:20;;;;;;;;;;;;;;;;;;5019458;28;19926;-74
2023/10/14 22:02:47;;;;;;;;;;;;;;;;;;5020279;28;20302;-74
2023/10/14 22:05:15;;;;;;;;;;;;;;;;;;5017811;28;19929;-75
2023/10/14 22:07:42;;;;;;;;;;;;;;;;;;5017384;28;19933;-75
2023/10/14 22:10:09;;;;;;;;;;;;;;;;;;5017695;28;19926;-75
2023/10/14 22:12:35;;;;;;;;;;;;;;;;;;5017722;28;19929;-74
2023/10/14 22:15:05;;;;;;;;;;;;;;;;;;5017126;28;19926;-75
2023/10/14 22:17:32;;;;;;;;;;;;;;;;;;5017247;28;19932;-75
2023/10/14 22:19:59;;;;;;;;;;;;;;;;;;5016918;28;19948;-75
2023/10/14 22:22:27;;;;;;;;;;;;;;;;;;5016835;28;20307;-74
2023/10/14 22:24:54;;;;;;;;;;;;;;;;;;5016960;28;20020;-74
2023/10/14 22:27:21;;;;;;;;;;;;;;;;;;5016322;28;19960;-74
2023/10/14 22:29:48;;;;;;;;;;;;;;;;;;5016509;28;19929;-74
2023/10/14 22:32:15;;;;;;;;;;;;;;;;;;5016365;28;19925;-75
2023/10/14 22:34:45;;;;;;;;;;;;;;;;;;5016433;28;19925;-75
2023/10/14 22:37:14;;;;;;;;;;;;;;;;;;5016311;28;19926;-75